createdAt,value
2023-11-24T05:35:28.836Z,2.71
2023-11-24T05:38:31.533Z,2.71
2023-11-24T05:41:34.025Z,2.21
2023-11-24T05:44:36.534Z,2.53
2023-11-24T05:47:39.407Z,2.54
2023-11-24T05:50:41.922Z,2.71
2023-11-24T05:53:44.417Z,2.85
2023-11-24T05:56:47.024Z,2.89
2023-11-24T05:59:50.771Z,2.67
2023-11-24T06:02:53.344Z,2.84
2023-11-24T06:05:56.141Z,2.91
2023-11-24T06:08:58.712Z,3.05
2023-11-24T06:12:03.054Z,3.12
2023-11-24T06:15:06.899Z,3.22
2023-11-24T06:18:09.474Z,3.29
2023-11-24T06:21:13.602Z,3.32
2023-11-24T06:24:16.555Z,3.39
2023-11-24T06:27:19.166Z,3.61
2023-11-24T06:30:21.662Z,3.87
2023-11-24T06:33:25.591Z,3.78
2023-11-24T06:36:28.209Z,3.76
2023-11-24T06:39:30.845Z,3.87
2023-11-24T06:42:33.526Z,3.87
2023-11-24T06:45:36.150Z,3.86
2023-11-24T06:48:40.584Z,3.73
2023-11-24T06:51:43.145Z,3.88
2023-11-24T06:54:46.139Z,4.04
2023-11-24T06:57:50.000Z,4.42
2023-11-24T07:00:52.826Z,4.85
2023-11-24T07:03:55.757Z,4.28
2023-11-24T07:06:59.529Z,4.21
2023-11-24T07:10:03.774Z,4.01
2023-11-24T07:13:08.562Z,3.91
2023-11-24T07:16:11.281Z,3.91
2023-11-24T07:19:13.921Z,3.92
2023-11-24T07:22:17.034Z,3.54
2023-11-24T07:25:19.544Z,3.70
2023-11-24T07:28:22.121Z,3.74
2023-11-24T07:31:25.932Z,4.11
2023-11-24T07:34:28.587Z,4.13
2023-11-24T07:37:31.080Z,4.08
2023-11-24T07:40:33.842Z,4.11
2023-11-24T07:43:36.913Z,4.09
2023-11-24T07:46:39.675Z,4.09
2023-11-24T07:49:42.630Z,4.17
2023-11-24T07:52:45.393Z,4.26
2023-11-24T07:55:48.343Z,4.18
2023-11-24T07:58:51.021Z,4.21
2023-11-24T08:01:53.700Z,4.22
2023-11-24T08:04:59.890Z,4.29
2023-11-24T08:08:02.589Z,4.55
2023-11-24T08:11:06.184Z,4.47
2023-11-24T08:14:08.770Z,4.56
2023-11-24T08:17:11.306Z,4.67
2023-11-24T08:20:14.794Z,4.58
2023-11-24T08:23:18.591Z,4.62
2023-11-24T08:26:22.510Z,4.70
2023-11-24T08:29:25.658Z,4.89
2023-11-24T08:32:28.181Z,5.00
2023-11-24T08:35:30.899Z,5.21
2023-11-24T08:38:33.400Z,5.28
2023-11-24T08:41:40.546Z,5.43
2023-11-24T08:44:43.528Z,5.50
2023-11-24T08:47:47.984Z,5.66
2023-11-24T08:50:50.682Z,5.68
2023-11-24T08:53:53.256Z,5.81
2023-11-24T08:56:55.763Z,5.95
2023-11-24T08:59:58.992Z,5.74
2023-11-24T09:03:03.586Z,5.72
2023-11-24T09:06:07.376Z,5.99
2023-11-24T09:09:10.294Z,6.18
2023-11-24T09:12:13.988Z,6.27
2023-11-24T09:15:16.814Z,6.27
2023-11-24T09:18:20.397Z,6.37
2023-11-24T09:21:22.989Z,6.45
2023-11-24T09:24:25.592Z,6.49
2023-11-24T09:27:28.092Z,6.76
2023-11-24T09:30:31.143Z,7.12
2023-11-24T09:33:33.640Z,7.47
2023-11-24T09:36:36.264Z,7.77
2023-11-24T09:39:38.824Z,7.83
2023-11-24T09:42:41.866Z,7.95
2023-11-24T09:45:44.372Z,8.09
2023-11-24T09:48:47.496Z,8.19
2023-11-24T09:51:50.168Z,8.32
2023-11-24T09:54:54.815Z,8.25
2023-11-24T09:57:58.701Z,8.17
2023-11-24T10:01:14.986Z,8.23
2023-11-24T10:04:17.563Z,8.29
2023-11-24T10:07:23.464Z,8.39
2023-11-24T10:10:27.455Z,8.53
2023-11-24T10:13:30.100Z,8.81
2023-11-24T10:16:32.942Z,8.82
2023-11-24T10:19:37.167Z,8.78
2023-11-24T10:22:40.221Z,8.91
2023-11-24T10:25:42.766Z,8.92
2023-11-24T10:28:46.127Z,8.75
2023-11-24T10:31:48.679Z,8.84
2023-11-24T10:34:52.635Z,8.83
2023-11-24T10:37:55.555Z,8.85
2023-11-24T10:41:00.782Z,8.54
2023-11-24T10:44:05.292Z,8.38
2023-11-24T10:47:09.846Z,8.22
2023-11-24T10:50:14.549Z,8.01
2023-11-24T10:53:33.244Z,8.03
2023-11-24T10:56:38.782Z,7.94
2023-11-24T10:59:42.841Z,7.85
2023-11-24T11:02:47.909Z,7.77
2023-11-24T11:06:18.677Z,7.70
2023-11-24T11:09:30.748Z,7.76
2023-11-24T11:12:40.760Z,7.87
2023-11-24T11:15:43.473Z,8.05
2023-11-24T11:18:46.188Z,8.24
2023-11-24T11:21:54.193Z,8.29
2023-11-24T11:25:16.115Z,8.23
2023-11-24T11:28:18.963Z,8.11
2023-11-24T11:31:35.607Z,8.07
2023-11-24T11:34:38.254Z,8.03
2023-11-24T11:37:42.562Z,8.02
2023-11-24T11:40:45.801Z,8.01
2023-11-24T11:43:55.446Z,7.86
2023-11-24T11:47:24.184Z,7.76
2023-11-24T11:50:26.932Z,7.66
2023-11-24T11:53:31.153Z,7.60
2023-11-24T11:56:34.378Z,7.59
2023-11-24T11:59:37.777Z,7.63
2023-11-24T12:02:40.707Z,7.59
2023-11-24T12:05:43.961Z,7.52
2023-11-24T12:08:46.476Z,7.46
2023-11-24T12:11:48.934Z,7.46
2023-11-24T12:14:55.778Z,7.29
2023-11-24T12:17:58.884Z,7.27
2023-11-24T12:21:01.739Z,7.30
2023-11-24T12:24:15.059Z,7.31
2023-11-24T12:27:19.703Z,7.24
2023-11-24T12:30:24.113Z,7.22
2023-11-24T12:33:26.711Z,7.25
2023-11-24T12:36:29.301Z,7.18
2023-11-24T12:39:32.146Z,7.21
2023-11-24T12:42:34.732Z,7.21
2023-11-24T12:45:37.251Z,7.29
2023-11-24T12:48:41.463Z,7.24
2023-11-24T12:51:47.910Z,7.20
2023-11-24T12:54:51.670Z,7.14
2023-11-24T12:57:55.206Z,7.17
2023-11-24T13:00:58.582Z,7.09
2023-11-24T13:04:01.461Z,7.04
2023-11-24T13:07:07.525Z,7.10
2023-11-24T13:10:14.625Z,7.09
2023-11-24T13:13:17.712Z,7.12
2023-11-24T13:16:20.629Z,7.11
2023-11-24T13:19:24.395Z,7.01
2023-11-24T13:22:27.310Z,7.05
2023-11-24T13:25:30.750Z,7.04
2023-11-24T13:28:33.568Z,7.05
2023-11-24T13:31:42.510Z,7.03
2023-11-24T13:34:45.597Z,6.91
2023-11-24T13:37:51.600Z,6.96
2023-11-24T13:40:56.062Z,6.99
2023-11-24T13:43:59.233Z,6.91
2023-11-24T13:47:04.470Z,6.92
2023-11-24T13:50:08.744Z,6.96
2023-11-24T13:53:13.256Z,6.90
2023-11-24T13:56:16.067Z,6.92
2023-11-24T13:59:18.600Z,6.85
2023-11-24T14:02:21.497Z,6.91
2023-11-24T14:05:24.266Z,6.71
2023-11-24T14:08:26.849Z,6.74
2023-11-24T14:11:31.944Z,6.70
2023-11-24T14:14:34.602Z,6.64
2023-11-24T14:17:37.303Z,6.74
2023-11-24T14:20:41.430Z,6.80
2023-11-24T14:23:44.042Z,6.65
2023-11-24T14:26:46.831Z,6.70
2023-11-24T14:29:49.315Z,6.61
2023-11-24T14:32:52.679Z,6.66
2023-11-24T14:35:56.414Z,6.65
2023-11-24T14:38:59.079Z,6.61
2023-11-24T14:42:02.749Z,6.51
2023-11-24T14:45:05.826Z,6.47
2023-11-24T14:48:10.117Z,6.49
2023-11-24T14:51:14.101Z,6.41
2023-11-24T14:54:17.608Z,6.45
2023-11-24T14:57:20.270Z,6.48
2023-11-24T15:00:35.074Z,6.34
2023-11-24T15:03:38.105Z,6.29
2023-11-24T15:06:41.619Z,6.24
2023-11-24T15:09:46.688Z,6.18
2023-11-24T15:12:49.426Z,6.20
2023-11-24T15:15:52.025Z,6.15
2023-11-24T15:18:54.553Z,6.13
2023-11-24T15:21:57.496Z,6.10
2023-11-24T15:25:00.383Z,6.14
2023-11-24T15:28:06.041Z,5.99
2023-11-24T15:31:08.594Z,5.83
2023-11-24T15:34:11.212Z,5.88
2023-11-24T15:37:13.759Z,5.93
2023-11-24T15:40:22.210Z,5.90
2023-11-24T15:43:25.451Z,5.89
2023-11-24T15:46:34.442Z,5.94
2023-11-24T15:49:40.177Z,5.92
2023-11-24T15:52:45.363Z,5.86
2023-11-24T15:55:50.715Z,5.97
2023-11-24T15:58:56.529Z,5.81
2023-11-24T16:02:01.760Z,5.80
2023-11-24T16:05:07.731Z,5.92
2023-11-24T16:08:11.948Z,5.74
